« Back
NWS Peachtree City, Ga » Text Product » ATL Terminal Aerodrome Forecast


Printer-friendly Version
Current Version              Previous Versions:   1  2  3  4  5  6  7  8  9  

Terminal Aerodrome Forecast

152
FTUS42 KFFC 020255 AAB
TAFATL
TAF AMD
KATL 020255Z 0203/0306 23008KT P6SM VCSH SCT040
     FM021000 14004KT 4SM BR SCT015 BKN250
     FM021500 22008KT P6SM SCT040 BKN150 PROB30 0221/0303 4SM TSRA
      BR BKN025CB
     FM030300 23008KT P6SM BKN040=



USA.gov is the U.S. government's official web portal to all federal, state and local government web resources and services.